createdAt,value
2017-02-06T00:00:03.937Z,993.17
2017-02-06T00:00:25.698Z,993.14
2017-02-06T00:00:52.205Z,993.17
2017-02-06T00:01:16.597Z,993.17
2017-02-06T00:02:50.409Z,993.19
2017-02-06T00:03:12.266Z,993.19
2017-02-06T00:03:33.991Z,993.20
2017-02-06T00:03:55.695Z,993.17
2017-02-06T00:04:48.684Z,993.24
2017-02-06T00:05:13.035Z,993.24
2017-02-06T00:05:34.722Z,993.21
2017-02-06T00:05:56.433Z,993.29
2017-02-06T00:06:18.150Z,993.25
2017-02-06T00:06:44.630Z,993.28
2017-02-06T00:07:37.652Z,993.31
2017-02-06T00:07:59.394Z,993.34
2017-02-06T00:08:25.893Z,993.30
2017-02-06T00:08:47.600Z,993.32
2017-02-06T00:09:14.094Z,993.31
2017-02-06T00:09:36.761Z,993.31
2017-02-06T00:11:10.578Z,993.32
2017-02-06T00:11:37.115Z,993.35
2017-02-06T00:11:58.855Z,993.38
2017-02-06T00:12:25.334Z,993.31
2017-02-06T00:12:47.046Z,993.38
2017-02-06T00:13:54.346Z,993.45
2017-02-06T00:14:16.121Z,993.42
2017-02-06T00:14:42.734Z,993.42
2017-02-06T00:15:04.472Z,993.42
2017-02-06T00:15:31.047Z,993.49
2017-02-06T00:15:52.727Z,993.47
2017-02-06T00:16:19.203Z,993.52
2017-02-06T00:16:40.914Z,993.54
2017-02-06T00:17:07.425Z,993.53
2017-02-06T00:17:29.170Z,993.50
2017-02-06T00:17:55.619Z,993.58
2017-02-06T00:18:48.596Z,993.52
2017-02-06T00:19:46.986Z,993.56
2017-02-06T00:20:11.144Z,993.53
2017-02-06T00:20:37.627Z,993.56
2017-02-06T00:20:59.366Z,993.50
2017-02-06T00:21:25.847Z,993.51
2017-02-06T00:21:47.575Z,993.56
2017-02-06T00:22:09.289Z,993.58
2017-02-06T00:22:35.946Z,993.59
2017-02-06T00:22:57.671Z,993.68
2017-02-06T00:23:19.396Z,993.57
2017-02-06T00:24:12.397Z,993.61
2017-02-06T00:25:42.022Z,993.64
2017-02-06T00:26:03.736Z,993.62
2017-02-06T00:26:25.456Z,993.65
2017-02-06T00:26:47.251Z,993.68
2017-02-06T00:27:13.762Z,993.65
2017-02-06T00:27:35.541Z,993.66
2017-02-06T00:27:57.373Z,993.66
2017-02-06T00:29:04.653Z,993.72
2017-02-06T00:29:26.443Z,993.78
2017-02-06T00:30:29.556Z,993.77
2017-02-06T00:30:51.249Z,993.79
2017-02-06T00:31:58.600Z,993.82
2017-02-06T00:32:20.352Z,993.81
2017-02-06T00:33:54.169Z,993.82
2017-02-06T00:34:15.868Z,993.82
2017-02-06T00:34:42.345Z,993.88
2017-02-06T00:35:35.369Z,993.91
2017-02-06T00:35:57.072Z,993.90
2017-02-06T00:36:18.826Z,993.89
2017-02-06T00:37:21.337Z,993.93
2017-02-06T00:37:47.823Z,993.95
2017-02-06T00:38:09.636Z,994.00
2017-02-06T00:38:31.348Z,993.92
2017-02-06T00:38:53.055Z,993.96
2017-02-06T00:39:15.012Z,993.91
2017-02-06T00:39:36.814Z,993.98
2017-02-06T00:40:29.765Z,994.00
2017-02-06T00:40:51.463Z,993.97
2017-02-06T00:41:17.944Z,993.96
2017-02-06T00:41:39.645Z,994.00
2017-02-06T00:42:01.335Z,993.97
2017-02-06T00:42:23.044Z,994.02
2017-02-06T00:42:44.749Z,994.01
2017-02-06T00:43:43.097Z,994.00
2017-02-06T00:44:04.804Z,993.99
2017-02-06T00:44:31.282Z,993.97
2017-02-06T00:44:52.979Z,994.05
2017-02-06T00:45:14.732Z,994.02
2017-02-06T00:46:07.679Z,994.00
2017-02-06T00:47:00.626Z,993.96
2017-02-06T00:47:27.103Z,994.03
2017-02-06T00:47:48.808Z,994.04
2017-02-06T00:48:15.290Z,994.01
2017-02-06T00:48:36.980Z,994.07
2017-02-06T00:48:58.692Z,994.04
2017-02-06T00:49:25.169Z,994.08
2017-02-06T00:49:46.861Z,994.08
2017-02-06T00:50:45.169Z,994.08
2017-02-06T00:51:06.871Z,994.08
2017-02-06T00:51:28.671Z,994.15
2017-02-06T00:52:31.733Z,994.10
2017-02-06T00:52:53.431Z,994.11
2017-02-06T00:54:00.807Z,994.25
2017-02-06T00:54:22.505Z,994.20
2017-02-06T00:54:44.209Z,994.20
2017-02-06T00:55:10.686Z,994.18
2017-02-06T00:55:32.411Z,994.21
2017-02-06T00:55:54.133Z,994.23
2017-02-06T00:56:15.924Z,994.22
2017-02-06T00:56:37.624Z,994.25
2017-02-06T00:57:06.751Z,994.28
2017-02-06T00:57:28.450Z,994.17
2017-02-06T00:57:54.937Z,994.28
2017-02-06T00:58:16.638Z,994.30
2017-02-06T00:59:09.588Z,994.34
2017-02-06T00:59:36.076Z,994.32
2017-02-06T00:59:57.766Z,994.35
2017-02-06T01:00:19.562Z,994.36
2017-02-06T01:00:41.287Z,994.40
2017-02-06T01:01:02.980Z,994.40
2017-02-06T01:01:24.689Z,994.38
2017-02-06T01:01:46.392Z,994.38
2017-02-06T01:02:08.093Z,994.42
2017-02-06T01:02:29.801Z,994.42
2017-02-06T01:02:51.515Z,994.40
2017-02-06T01:03:13.300Z,994.39
2017-02-06T01:03:39.781Z,994.38
2017-02-06T01:04:06.254Z,994.38
2017-02-06T01:04:27.943Z,994.40
2017-02-06T01:04:54.505Z,994.48
2017-02-06T01:05:16.194Z,994.45
2017-02-06T01:05:37.893Z,994.42
2017-02-06T01:06:30.878Z,994.50
2017-02-06T01:06:57.354Z,994.46
2017-02-06T01:07:19.085Z,994.48
2017-02-06T01:07:40.780Z,994.45
2017-02-06T01:08:02.484Z,994.46
2017-02-06T01:08:24.181Z,994.56
2017-02-06T01:08:45.896Z,994.57
2017-02-06T01:09:07.604Z,994.54
2017-02-06T01:09:29.299Z,994.50
2017-02-06T01:09:55.777Z,994.57
2017-02-06T01:10:17.481Z,994.60
2017-02-06T01:10:39.181Z,994.54
2017-02-06T01:11:32.152Z,994.61
2017-02-06T01:11:53.851Z,994.57
2017-02-06T01:12:20.337Z,994.57
2017-02-06T01:12:42.034Z,994.58
2017-02-06T01:13:03.733Z,994.65
2017-02-06T01:13:25.445Z,994.59
2017-02-06T01:13:47.137Z,994.66
2017-02-06T01:14:08.839Z,994.65
2017-02-06T01:14:35.308Z,994.64
2017-02-06T01:14:57.010Z,994.69
2017-02-06T01:15:23.489Z,994.70
2017-02-06T01:15:45.179Z,994.66
2017-02-06T01:16:06.877Z,994.70
2017-02-06T01:16:28.583Z,994.70
2017-02-06T01:16:50.360Z,994.69
2017-02-06T01:17:12.060Z,994.71
2017-02-06T01:17:33.792Z,994.77
2017-02-06T01:17:58.448Z,994.72
2017-02-06T01:18:20.157Z,994.78
2017-02-06T01:18:41.862Z,994.79
2017-02-06T01:19:03.577Z,994.85
2017-02-06T01:19:25.279Z,994.71
2017-02-06T01:19:51.750Z,994.81
2017-02-06T01:20:13.536Z,994.83
2017-02-06T01:21:06.485Z,994.79
2017-02-06T01:21:28.189Z,994.87
2017-02-06T01:21:54.659Z,994.79
2017-02-06T01:22:16.354Z,994.76
2017-02-06T01:22:38.167Z,994.78
2017-02-06T01:22:59.873Z,994.83
2017-02-06T01:23:21.693Z,994.79
2017-02-06T01:23:48.178Z,994.81
2017-02-06T01:24:09.880Z,994.81
2017-02-06T01:24:36.359Z,994.79
2017-02-06T01:24:58.140Z,994.85
2017-02-06T01:25:19.930Z,994.82
2017-02-06T01:25:46.404Z,994.78
2017-02-06T01:26:08.096Z,994.88
2017-02-06T01:26:34.654Z,994.87
2017-02-06T01:26:56.351Z,994.85
2017-02-06T01:27:18.056Z,994.81
2017-02-06T01:27:44.625Z,994.83
2017-02-06T01:28:06.321Z,994.81
2017-02-06T01:28:28.046Z,994.79
2017-02-06T01:28:49.777Z,994.87
2017-02-06T01:29:11.478Z,994.84
2017-02-06T01:29:37.970Z,994.95
2017-02-06T01:29:59.664Z,994.89
2017-02-06T01:30:21.357Z,994.85
2017-02-06T01:31:14.310Z,994.94
2017-02-06T01:32:07.253Z,994.93
2017-02-06T01:33:00.214Z,994.90
2017-02-06T01:33:26.699Z,994.88
2017-02-06T01:33:48.395Z,994.97
2017-02-06T01:34:10.085Z,994.98
2017-02-06T01:34:31.886Z,995.00
2017-02-06T01:34:53.683Z,995.01
2017-02-06T01:35:15.388Z,994.99
2017-02-06T01:35:37.101Z,994.96
2017-02-06T01:35:58.795Z,994.97
2017-02-06T01:36:20.505Z,994.96
2017-02-06T01:37:18.806Z,994.87
2017-02-06T01:37:40.597Z,994.95
2017-02-06T01:38:02.306Z,995.00
2017-02-06T01:38:24.009Z,995.00
2017-02-06T01:38:45.798Z,994.99
2017-02-06T01:39:38.763Z,994.97
2017-02-06T01:40:34.521Z,994.96
2017-02-06T01:41:27.486Z,995.02
2017-02-06T01:41:49.196Z,995.00
2017-02-06T01:42:42.170Z,995.15
2017-02-06T01:43:03.873Z,995.23
2017-02-06T01:43:25.570Z,995.12
2017-02-06T01:43:47.297Z,995.15
2017-02-06T01:44:13.775Z,995.09
2017-02-06T01:44:35.470Z,995.18
2017-02-06T01:45:38.521Z,995.13
2017-02-06T01:46:00.218Z,995.04
2017-02-06T01:46:21.931Z,995.21
2017-02-06T01:46:48.406Z,995.15
2017-02-06T01:47:10.103Z,995.28
2017-02-06T01:48:13.285Z,995.22
2017-02-06T01:48:34.980Z,995.19
2017-02-06T01:48:56.695Z,995.21
2017-02-06T01:49:49.750Z,995.24
2017-02-06T01:50:45.374Z,995.26
2017-02-06T01:51:38.346Z,995.22
2017-02-06T01:52:31.351Z,995.24
2017-02-06T01:53:38.642Z,995.32
2017-02-06T01:54:00.363Z,995.29
2017-02-06T01:54:22.091Z,995.38
2017-02-06T01:55:15.090Z,995.29
2017-02-06T01:56:42.422Z,995.26
2017-02-06T01:57:43.114Z,995.36
2017-02-06T01:58:46.031Z,995.36
2017-02-06T01:59:07.755Z,995.35
2017-02-06T01:59:29.483Z,995.40
2017-02-06T01:59:56.151Z,995.43
2017-02-06T02:00:20.777Z,995.29
2017-02-06T02:01:15.972Z,995.43
2017-02-06T02:01:42.585Z,995.45
2017-02-06T02:02:04.290Z,995.45
2017-02-06T02:02:57.243Z,995.51
2017-02-06T02:03:50.213Z,995.42
2017-02-06T02:04:43.195Z,995.43
2017-02-06T02:05:09.689Z,995.45
2017-02-06T02:05:31.410Z,995.43
2017-02-06T02:05:57.909Z,995.43
2017-02-06T02:06:19.728Z,995.48
2017-02-06T02:06:46.249Z,995.44
2017-02-06T02:07:07.997Z,995.47
2017-02-06T02:07:34.473Z,995.50
2017-02-06T02:07:56.205Z,995.49
2017-02-06T02:08:22.794Z,995.45
2017-02-06T02:08:44.502Z,995.52
2017-02-06T02:09:06.235Z,995.48
2017-02-06T02:10:13.568Z,995.50
2017-02-06T02:10:35.375Z,995.54
2017-02-06T02:11:28.387Z,995.56
2017-02-06T02:11:54.874Z,995.51
2017-02-06T02:12:16.652Z,995.55
2017-02-06T02:12:38.366Z,995.55
2017-02-06T02:13:04.864Z,995.60
2017-02-06T02:13:28.610Z,995.53
2017-02-06T02:13:55.088Z,995.56
2017-02-06T02:14:16.799Z,995.62
2017-02-06T02:14:38.570Z,995.51
2017-02-06T02:15:05.067Z,995.58
2017-02-06T02:15:26.769Z,995.60
2017-02-06T02:15:53.304Z,995.60
2017-02-06T02:16:17.706Z,995.60
2017-02-06T02:16:44.228Z,995.57
2017-02-06T02:17:05.933Z,995.67
2017-02-06T02:17:34.832Z,995.57
2017-02-06T02:17:56.579Z,995.54
2017-02-06T02:18:25.673Z,995.59
2017-02-06T02:18:47.408Z,995.55
2017-02-06T02:19:50.543Z,995.55
2017-02-06T02:20:12.314Z,995.58
2017-02-06T02:20:38.832Z,995.53
2017-02-06T02:21:00.548Z,995.60
2017-02-06T02:22:03.654Z,995.68
2017-02-06T02:22:25.429Z,995.70
2017-02-06T02:22:51.934Z,995.69
2017-02-06T02:23:13.729Z,995.67
2017-02-06T02:24:47.547Z,995.69
2017-02-06T02:25:14.046Z,995.57
2017-02-06T02:25:35.759Z,995.64
2017-02-06T02:25:57.489Z,995.76
2017-02-06T02:26:50.476Z,995.62
2017-02-06T02:27:16.982Z,995.70
2017-02-06T02:27:38.714Z,995.60
2017-02-06T02:28:00.436Z,995.71
2017-02-06T02:28:22.210Z,995.77
2017-02-06T02:28:43.958Z,995.76
2017-02-06T02:29:46.495Z,995.79
2017-02-06T02:30:08.209Z,995.77
2017-02-06T02:30:34.733Z,995.70
2017-02-06T02:30:56.511Z,995.75
2017-02-06T02:31:23.019Z,995.77
2017-02-06T02:31:44.788Z,995.72
2017-02-06T02:33:11.877Z,995.71
2017-02-06T02:33:33.694Z,995.74
2017-02-06T02:34:00.177Z,995.82
2017-02-06T02:34:48.415Z,995.81
2017-02-06T02:35:12.855Z,995.71
2017-02-06T02:35:39.360Z,995.76
2017-02-06T02:36:01.078Z,995.81
2017-02-06T02:36:27.568Z,995.82
2017-02-06T02:36:49.285Z,995.74
2017-02-06T02:37:10.991Z,995.85
2017-02-06T02:37:37.480Z,995.72
2017-02-06T02:37:59.333Z,995.78
2017-02-06T02:38:25.808Z,995.74
2017-02-06T02:38:47.567Z,995.81
2017-02-06T02:39:16.898Z,995.78
2017-02-06T02:39:38.603Z,995.80
2017-02-06T02:40:45.881Z,995.76
2017-02-06T02:41:07.761Z,995.81
2017-02-06T02:41:29.475Z,995.76
2017-02-06T02:41:53.994Z,995.84
2017-02-06T02:42:15.722Z,995.87
2017-02-06T02:43:18.877Z,995.91
2017-02-06T02:43:40.587Z,995.85
2017-02-06T02:44:02.323Z,995.83
2017-02-06T02:45:43.491Z,995.83
2017-02-06T02:46:12.298Z,995.85
2017-02-06T02:46:33.907Z,995.80
2017-02-06T02:48:03.626Z,995.78
2017-02-06T02:49:10.915Z,995.85
2017-02-06T02:49:32.651Z,995.84
2017-02-06T02:50:35.803Z,995.83
2017-02-06T02:51:28.783Z,995.82
2017-02-06T02:51:55.272Z,995.80
2017-02-06T02:52:19.420Z,995.83
2017-02-06T02:52:45.948Z,995.85
2017-02-06T02:53:07.700Z,995.90
2017-02-06T02:53:34.211Z,995.77
2017-02-06T02:53:56.031Z,995.81
2017-02-06T02:54:24.853Z,995.80
2017-02-06T02:54:51.305Z,995.74
2017-02-06T02:55:13.145Z,995.83
2017-02-06T02:56:49.981Z,995.86
2017-02-06T02:57:11.682Z,995.82
2017-02-06T02:58:04.649Z,995.87
2017-02-06T02:58:31.124Z,995.92
2017-02-06T02:58:52.869Z,995.84
2017-02-06T02:59:43.703Z,996.00
2017-02-06T03:00:10.243Z,996.03
2017-02-06T03:00:31.963Z,995.96
2017-02-06T03:01:24.978Z,995.85
2017-02-06T03:01:51.493Z,995.90
2017-02-06T03:02:13.205Z,995.91
2017-02-06T03:02:42.368Z,995.84
2017-02-06T03:03:04.094Z,995.94
2017-02-06T03:04:07.172Z,996.01
2017-02-06T03:04:28.889Z,995.93
2017-02-06T03:04:50.607Z,995.95
2017-02-06T03:05:17.100Z,995.98
2017-02-06T03:05:38.822Z,996.06
2017-02-06T03:06:00.532Z,996.02
2017-02-06T03:07:03.636Z,996.09
2017-02-06T03:07:25.351Z,996.09
2017-02-06T03:07:51.840Z,996.09
2017-02-06T03:08:13.554Z,995.98
2017-02-06T03:08:35.257Z,995.96
2017-02-06T03:09:28.240Z,996.06
2017-02-06T03:09:49.961Z,996.18
2017-02-06T03:10:16.540Z,996.09
2017-02-06T03:10:38.258Z,996.17
2017-02-06T03:10:59.980Z,996.10
2017-02-06T03:11:26.462Z,996.04
2017-02-06T03:11:48.160Z,996.15
2017-02-06T03:12:51.251Z,996.01
2017-02-06T03:13:12.978Z,996.12
2017-02-06T03:13:34.682Z,996.21
2017-02-06T03:14:01.167Z,996.16
2017-02-06T03:14:22.873Z,996.18
2017-02-06T03:15:25.402Z,996.10
2017-02-06T03:15:51.943Z,996.14
2017-02-06T03:16:13.656Z,996.26
2017-02-06T03:16:40.142Z,996.19
2017-02-06T03:17:01.842Z,996.20
2017-02-06T03:17:28.330Z,996.20
2017-02-06T03:17:50.036Z,996.12
2017-02-06T03:18:11.759Z,996.20
2017-02-06T03:18:38.231Z,996.15
2017-02-06T03:18:59.934Z,996.15
2017-02-06T03:19:26.422Z,996.09
2017-02-06T03:19:48.127Z,996.23
2017-02-06T03:20:55.398Z,996.27
2017-02-06T03:21:17.108Z,996.18
2017-02-06T03:22:19.634Z,996.23
2017-02-06T03:22:46.203Z,996.28
2017-02-06T03:23:07.898Z,996.29
2017-02-06T03:23:34.373Z,996.27
2017-02-06T03:23:56.079Z,996.27
2017-02-06T03:24:22.554Z,996.30
2017-02-06T03:24:44.263Z,996.27
2017-02-06T03:25:05.970Z,996.32
2017-02-06T03:25:32.444Z,996.25
2017-02-06T03:25:54.166Z,996.40
2017-02-06T03:26:20.657Z,996.32
2017-02-06T03:26:42.381Z,996.33
2017-02-06T03:27:08.866Z,996.32
2017-02-06T03:27:30.580Z,996.31
2017-02-06T03:27:52.305Z,996.37
2017-02-06T03:28:18.786Z,996.39
2017-02-06T03:28:40.486Z,996.27
2017-02-06T03:29:02.206Z,996.39
2017-02-06T03:29:28.694Z,996.33
2017-02-06T03:29:50.402Z,996.35
2017-02-06T03:30:16.896Z,996.36
2017-02-06T03:30:38.621Z,996.31
2017-02-06T03:31:00.351Z,996.40
2017-02-06T03:31:53.328Z,996.34
2017-02-06T03:32:15.038Z,996.29
2017-02-06T03:32:41.514Z,996.34
2017-02-06T03:33:03.227Z,996.38
2017-02-06T03:33:24.943Z,996.39
2017-02-06T03:33:51.433Z,996.31
2017-02-06T03:34:13.149Z,996.32
2017-02-06T03:34:34.943Z,996.40
2017-02-06T03:35:01.434Z,996.38
2017-02-06T03:35:23.163Z,996.45
2017-02-06T03:35:44.876Z,996.38
2017-02-06T03:36:11.346Z,996.40
2017-02-06T03:36:33.073Z,996.40
2017-02-06T03:36:54.789Z,996.45
2017-02-06T03:37:19.131Z,996.39
2017-02-06T03:38:12.111Z,996.39
2017-02-06T03:38:33.818Z,996.37
2017-02-06T03:39:00.323Z,996.42
2017-02-06T03:39:22.038Z,996.45
2017-02-06T03:39:43.745Z,996.45
2017-02-06T03:40:05.453Z,996.40
2017-02-06T03:40:27.150Z,996.50
2017-02-06T03:40:48.854Z,996.44
2017-02-06T03:41:51.951Z,996.34
2017-02-06T03:42:13.679Z,996.38
2017-02-06T03:43:06.654Z,996.48
2017-02-06T03:43:28.366Z,996.54
2017-02-06T03:43:50.072Z,996.41
2017-02-06T03:44:11.838Z,996.50
2017-02-06T03:44:33.524Z,996.52
2017-02-06T03:45:26.488Z,996.66
2017-02-06T03:45:48.185Z,996.55
2017-02-06T03:46:14.664Z,996.58
2017-02-06T03:46:36.379Z,996.55
2017-02-06T03:47:29.369Z,996.52
2017-02-06T03:48:22.368Z,996.52
2017-02-06T03:49:15.450Z,996.61
2017-02-06T03:50:08.466Z,996.58
2017-02-06T03:51:15.730Z,996.67
2017-02-06T03:51:37.449Z,996.67
2017-02-06T03:51:59.184Z,996.75
2017-02-06T03:52:25.671Z,996.65
2017-02-06T03:52:47.377Z,996.77
2017-02-06T03:53:09.114Z,996.75
2017-02-06T03:54:02.095Z,996.82
2017-02-06T03:54:23.897Z,996.77
2017-02-06T03:55:16.948Z,996.75
2017-02-06T03:55:38.660Z,996.67
2017-02-06T03:56:36.994Z,996.80
2017-02-06T03:56:58.724Z,996.77
2017-02-06T03:58:01.801Z,996.77
2017-02-06T03:58:23.547Z,996.83
2017-02-06T03:59:26.655Z,996.98
2017-02-06T03:59:48.434Z,996.89
2017-02-06T04:00:51.515Z,996.93
2017-02-06T04:01:13.244Z,996.95
2017-02-06T04:01:34.957Z,997.03
2017-02-06T04:02:27.928Z,996.96
2017-02-06T04:02:49.650Z,997.03
2017-02-06T04:03:42.647Z,996.94
2017-02-06T04:04:04.370Z,996.98
2017-02-06T04:04:57.348Z,997.05
2017-02-06T04:05:19.062Z,997.14
2017-02-06T04:06:12.031Z,997.07
2017-02-06T04:07:19.345Z,997.17
2017-02-06T04:07:41.084Z,997.05
2017-02-06T04:08:34.066Z,997.09
2017-02-06T04:09:36.622Z,997.06
2017-02-06T04:10:03.110Z,997.17
2017-02-06T04:10:27.762Z,997.23
2017-02-06T04:10:54.259Z,997.06
2017-02-06T04:11:15.988Z,997.03
2017-02-06T04:11:42.461Z,997.06
2017-02-06T04:12:04.172Z,997.09
2017-02-06T04:12:30.662Z,997.13
2017-02-06T04:12:52.362Z,997.10
2017-02-06T04:13:18.846Z,997.05
2017-02-06T04:13:40.583Z,997.16
2017-02-06T04:14:07.086Z,997.19
2017-02-06T04:14:28.796Z,997.23
2017-02-06T04:14:50.548Z,997.14
2017-02-06T04:15:43.495Z,997.18
2017-02-06T04:16:05.232Z,997.23
2017-02-06T04:16:58.230Z,997.17
2017-02-06T04:17:19.932Z,997.21
2017-02-06T04:17:46.412Z,997.25
2017-02-06T04:18:08.145Z,997.25
2017-02-06T04:19:01.102Z,997.27
2017-02-06T04:19:22.802Z,997.27
2017-02-06T04:19:44.512Z,997.27
2017-02-06T04:20:06.213Z,997.32
2017-02-06T04:20:27.928Z,997.38
2017-02-06T04:20:54.408Z,997.32
2017-02-06T04:21:16.142Z,997.36
2017-02-06T04:22:49.918Z,997.32
2017-02-06T04:23:42.879Z,997.33
2017-02-06T04:24:35.848Z,997.45
2017-02-06T04:24:57.564Z,997.35
2017-02-06T04:25:24.085Z,997.37
2017-02-06T04:25:45.806Z,997.40
2017-02-06T04:26:12.282Z,997.38
2017-02-06T04:26:33.997Z,997.39
2017-02-06T04:26:55.716Z,997.46
2017-02-06T04:27:58.826Z,997.45
2017-02-06T04:28:20.524Z,997.51
2017-02-06T04:28:42.238Z,997.42
2017-02-06T04:29:35.209Z,997.47
2017-02-06T04:30:28.173Z,997.48
2017-02-06T04:30:54.653Z,997.46
2017-02-06T04:31:16.398Z,997.60
2017-02-06T04:32:14.704Z,997.65
2017-02-06T04:32:36.402Z,997.51
2017-02-06T04:32:58.111Z,997.57
2017-02-06T04:33:24.616Z,997.58
2017-02-06T04:33:46.319Z,997.47
2017-02-06T04:34:08.025Z,997.56
2017-02-06T04:34:34.561Z,997.48
2017-02-06T04:34:56.352Z,997.61
2017-02-06T04:35:18.082Z,997.61
2017-02-06T04:36:11.052Z,997.56
2017-02-06T04:36:32.787Z,997.55
2017-02-06T04:36:59.252Z,997.61
2017-02-06T04:37:20.959Z,997.68
2017-02-06T04:37:42.655Z,997.64
2017-02-06T04:38:04.368Z,997.63
2017-02-06T04:38:26.061Z,997.63
2017-02-06T04:38:47.768Z,997.56
2017-02-06T04:39:09.481Z,997.63
2017-02-06T04:39:31.211Z,997.64
2017-02-06T04:40:34.290Z,997.64
2017-02-06T04:40:55.990Z,997.66
2017-02-06T04:41:48.964Z,997.77
2017-02-06T04:42:15.447Z,997.66
2017-02-06T04:42:37.196Z,997.65
2017-02-06T04:43:30.156Z,997.74
2017-02-06T04:44:23.144Z,997.82
2017-02-06T04:44:49.617Z,997.72
2017-02-06T04:45:11.331Z,997.83
2017-02-06T04:45:33.031Z,997.84
2017-02-06T04:45:54.740Z,997.86
2017-02-06T04:46:16.448Z,997.81
2017-02-06T04:46:42.934Z,997.81
2017-02-06T04:47:04.645Z,997.78
2017-02-06T04:47:57.698Z,997.86
2017-02-06T04:48:24.162Z,997.97
2017-02-06T04:48:45.872Z,997.86
2017-02-06T04:49:53.147Z,997.98
2017-02-06T04:50:14.841Z,998.01
2017-02-06T04:51:17.356Z,998.02
2017-02-06T04:51:43.843Z,998.02
2017-02-06T04:52:05.552Z,997.95
2017-02-06T04:52:27.265Z,998.03
2017-02-06T04:52:48.965Z,998.02
2017-02-06T04:53:15.460Z,997.99
2017-02-06T04:53:37.153Z,998.05
2017-02-06T04:54:30.125Z,998.10
2017-02-06T04:55:23.090Z,998.19
2017-02-06T04:56:16.065Z,998.07
2017-02-06T04:56:42.564Z,998.11
2017-02-06T04:57:04.274Z,998.13
2017-02-06T04:58:11.599Z,998.21
2017-02-06T04:58:33.302Z,998.12
2017-02-06T04:58:55.024Z,998.14
2017-02-06T04:59:47.978Z,998.15
2017-02-06T05:00:14.473Z,998.07
2017-02-06T05:00:38.184Z,998.10
2017-02-06T05:01:04.672Z,998.12
2017-02-06T05:01:26.366Z,998.17
2017-02-06T05:01:48.093Z,998.10
2017-02-06T05:02:14.567Z,998.12
2017-02-06T05:02:36.281Z,998.06
2017-02-06T05:02:57.983Z,998.13
2017-02-06T05:03:19.738Z,998.12
2017-02-06T05:03:41.433Z,998.10
2017-02-06T05:04:07.916Z,998.20
2017-02-06T05:04:29.624Z,998.19
2017-02-06T05:05:22.592Z,998.24
2017-02-06T05:05:44.317Z,998.19
2017-02-06T05:06:10.793Z,998.20
2017-02-06T05:06:32.495Z,998.15
2017-02-06T05:06:58.975Z,998.11
2017-02-06T05:07:20.680Z,998.22
2017-02-06T05:07:47.180Z,998.21
2017-02-06T05:08:08.888Z,998.23
2017-02-06T05:08:35.370Z,998.23
2017-02-06T05:08:57.071Z,998.25
2017-02-06T05:09:23.557Z,998.23
2017-02-06T05:09:45.259Z,998.24
2017-02-06T05:10:11.755Z,998.25
2017-02-06T05:11:04.741Z,998.30
2017-02-06T05:12:07.823Z,998.26
2017-02-06T05:12:29.524Z,998.35
2017-02-06T05:12:51.238Z,998.29
2017-02-06T05:13:44.203Z,998.37
2017-02-06T05:14:47.286Z,998.30
2017-02-06T05:15:42.267Z,998.32
2017-02-06T05:16:08.766Z,998.30
2017-02-06T05:16:30.493Z,998.40
2017-02-06T05:16:57.059Z,998.41
2017-02-06T05:17:18.789Z,998.40
2017-02-06T05:17:45.275Z,998.42
2017-02-06T05:18:06.986Z,998.44
2017-02-06T05:18:33.467Z,998.42
2017-02-06T05:18:55.163Z,998.36
2017-02-06T05:19:21.665Z,998.43
2017-02-06T05:20:14.617Z,998.46
2017-02-06T05:20:41.097Z,998.42
2017-02-06T05:21:02.801Z,998.41
2017-02-06T05:21:55.763Z,998.43
2017-02-06T05:22:48.716Z,998.57
2017-02-06T05:23:15.209Z,998.44
2017-02-06T05:23:37.014Z,998.44
2017-02-06T05:24:30.013Z,998.40
2017-02-06T05:25:22.955Z,998.39
2017-02-06T05:25:49.432Z,998.51
2017-02-06T05:26:11.122Z,998.52
2017-02-06T05:27:04.105Z,998.51
2017-02-06T05:27:33.250Z,998.50
2017-02-06T05:27:54.954Z,998.46
2017-02-06T05:28:16.663Z,998.53
2017-02-06T05:28:43.142Z,998.57
2017-02-06T05:29:04.849Z,998.50
2017-02-06T05:29:31.351Z,998.50
2017-02-06T05:29:53.055Z,998.55
2017-02-06T05:30:19.531Z,998.49
2017-02-06T05:30:41.235Z,998.58
2017-02-06T05:31:07.722Z,998.61
2017-02-06T05:31:29.424Z,998.66
2017-02-06T05:31:51.135Z,998.59
2017-02-06T05:32:17.626Z,998.60
2017-02-06T05:32:39.327Z,998.62
2017-02-06T05:33:05.810Z,998.66
2017-02-06T05:33:27.511Z,998.56
2017-02-06T05:33:49.310Z,998.55
2017-02-06T05:34:11.020Z,998.60
2017-02-06T05:34:32.749Z,998.66
2017-02-06T05:34:59.224Z,998.54
2017-02-06T05:35:20.945Z,998.67
2017-02-06T05:35:42.642Z,998.67
2017-02-06T05:36:09.140Z,998.70
2017-02-06T05:36:30.922Z,998.61
2017-02-06T05:36:52.620Z,998.64
2017-02-06T05:37:14.337Z,998.62
2017-02-06T05:37:36.044Z,998.61
2017-02-06T05:37:57.749Z,998.68
2017-02-06T05:38:29.005Z,998.68
2017-02-06T05:38:50.791Z,998.61
2017-02-06T05:39:17.273Z,998.70
2017-02-06T05:40:15.617Z,998.72
2017-02-06T05:40:37.416Z,998.77
2017-02-06T05:41:03.900Z,998.69
2017-02-06T05:41:25.603Z,998.79
2017-02-06T05:41:47.317Z,998.70
2017-02-06T05:42:09.114Z,998.75
2017-02-06T05:42:30.807Z,998.79
2017-02-06T05:42:52.547Z,998.73
2017-02-06T05:43:45.528Z,998.76
2017-02-06T05:44:07.233Z,998.73
2017-02-06T05:44:33.719Z,998.76
2017-02-06T05:44:55.433Z,998.89
2017-02-06T05:45:17.275Z,998.75
2017-02-06T05:45:38.984Z,998.90
2017-02-06T05:46:00.710Z,998.88
2017-02-06T05:46:56.327Z,998.92
2017-02-06T05:47:22.888Z,998.93
2017-02-06T05:47:44.584Z,998.90
2017-02-06T05:48:11.079Z,998.93
2017-02-06T05:48:32.772Z,998.86
2017-02-06T05:48:59.380Z,998.95
2017-02-06T05:49:21.104Z,998.89
2017-02-06T05:50:28.385Z,998.92
2017-02-06T05:50:50.183Z,998.95
2017-02-06T05:51:11.881Z,998.96
2017-02-06T05:51:38.366Z,998.95
2017-02-06T05:52:00.151Z,998.90
2017-02-06T05:52:21.940Z,998.92
2017-02-06T05:52:48.414Z,998.85
2017-02-06T05:53:10.115Z,998.96
2017-02-06T05:54:13.210Z,999.07
2017-02-06T05:54:34.917Z,998.96
2017-02-06T05:54:59.432Z,998.96
2017-02-06T05:55:21.139Z,998.94
2017-02-06T05:55:42.879Z,998.95
2017-02-06T05:56:35.835Z,998.99
2017-02-06T05:57:28.814Z,998.97
2017-02-06T05:57:50.627Z,998.94
2017-02-06T05:58:17.190Z,999.06
2017-02-06T05:58:38.894Z,999.03
2017-02-06T05:59:00.588Z,999.04
2017-02-06T05:59:22.392Z,999.03
2017-02-06T05:59:44.149Z,999.00
2017-02-06T06:00:05.885Z,999.04
2017-02-06T06:00:32.396Z,999.07
2017-02-06T06:00:54.104Z,998.90
2017-02-06T06:01:15.816Z,998.98
2017-02-06T06:01:42.292Z,999.02
2017-02-06T06:02:03.980Z,999.00
2017-02-06T06:02:30.449Z,999.03
2017-02-06T06:02:52.162Z,999.18
2017-02-06T06:03:45.147Z,999.17
2017-02-06T06:04:38.099Z,999.06
2017-02-06T06:05:31.054Z,999.09
2017-02-06T06:06:24.024Z,999.07
2017-02-06T06:07:27.134Z,999.23
2017-02-06T06:07:48.833Z,999.10
2017-02-06T06:08:10.530Z,999.10
2017-02-06T06:09:03.480Z,999.14
2017-02-06T06:09:25.237Z,999.14
2017-02-06T06:10:18.203Z,999.09
2017-02-06T06:10:39.914Z,999.08
2017-02-06T06:11:01.663Z,999.15
2017-02-06T06:11:23.377Z,999.13
2017-02-06T06:11:49.857Z,999.07
2017-02-06T06:12:11.597Z,999.11
2017-02-06T06:13:04.564Z,999.18
2017-02-06T06:13:26.278Z,999.14
2017-02-06T06:13:52.753Z,999.11
2017-02-06T06:14:14.444Z,999.16
2017-02-06T06:15:07.402Z,999.17
2017-02-06T06:15:29.137Z,999.19
2017-02-06T06:15:50.878Z,999.22
2017-02-06T06:16:12.568Z,999.19
2017-02-06T06:16:34.293Z,999.22
2017-02-06T06:17:00.772Z,999.24
2017-02-06T06:17:22.470Z,999.17
2017-02-06T06:18:29.769Z,999.20
2017-02-06T06:18:51.487Z,999.27
2017-02-06T06:19:13.217Z,999.31
2017-02-06T06:20:06.175Z,999.26
2017-02-06T06:20:27.881Z,999.32
2017-02-06T06:21:20.838Z,999.42
2017-02-06T06:21:47.331Z,999.27